Time;durP1;ratioP1;P1;durP2;ratioP2;P2;SDS_P1;SDS_P2;PMS_P1;PMS_P2;Temp;Humidity;BMP_temperature;BMP_pressure;BME280_temperature;BME280_humidity;BME280_pressure;Samples;Min_cycle;Max_cycle;Signal;HPM_P1;HPM_P2
2021/08/23 00:00:23;;;;;;;;;;;;;;;22.57;70.24;101461.63;4944542;28;102170;-90
2021/08/23 00:02:50;;;;;;;;;;;;;;;22.57;70.16;101456.06;4943710;28;102815;-90
2021/08/23 00:05:17;;;;;;;;;;;;;;;22.57;70.03;101459.66;4950429;28;101828;-90
2021/08/23 00:07:43;;;;;;;;;;;;;;;22.55;70.01;101456.44;4957475;28;101900;-89
2021/08/23 00:10:10;;;;;;;;;;;;;;;22.56;70.13;101469.13;4944555;28;102055;-90
2021/08/23 00:12:37;;;;;;;;;;;;;;;22.57;70.12;101470.75;4941147;28;102773;-90
2021/08/23 00:15:04;;;;;;;;;;;;;;;22.56;70.08;101463.59;4935818;28;101852;-90
2021/08/23 00:17:32;;;;;;;;;;;;;;;22.55;70.12;101462.78;4943023;28;101955;-90
2021/08/23 00:19:59;;;;;;;;;;;;;;;22.55;70.08;101465.56;4956980;28;102051;-90
2021/08/23 00:22:33;;;;;;;;;;;;;;;22.56;70.05;101460.81;4951694;28;102458;-90
2021/08/23 00:25:00;;;;;;;;;;;;;;;22.54;70.05;101466.72;4961278;28;102037;-89
2021/08/23 00:27:26;;;;;;;;;;;;;;;22.56;70.03;101463.59;4940328;28;102194;-86
2021/08/23 00:29:53;;;;;;;;;;;;;;;22.55;70.23;101465.56;4942959;28;102392;-86
2021/08/23 00:32:19;;;;;;;;;;;;;;;22.54;70.31;101463.94;4955076;28;102424;-90
2021/08/23 00:34:46;;;;;;;;;;;;;;;22.54;70.01;101463.94;4939658;28;102062;-89
2021/08/23 00:37:13;;;;;;;;;;;;;;;22.55;70.27;101470.28;4942688;28;102121;-86
2021/08/23 00:39:42;;;;;;;;;;;;;;;22.56;70.02;101474.69;4939688;28;102234;-86
2021/08/23 00:42:08;;;;;;;;;;;;;;;22.55;70.15;101473.06;4934370;28;102718;-86
2021/08/23 00:44:35;;;;;;;;;;;;;;;22.55;70.28;101479.44;4942995;28;102116;-86
2021/08/23 00:47:05;;;;;;;;;;;;;;;22.54;70.24;101472.25;4941128;28;102146;-90
2021/08/23 00:49:32;;;;;;;;;;;;;;;22.55;70.04;101478.63;4942562;28;102281;-89
2021/08/23 00:51:58;;;;;;;;;;;;;;;22.54;70.30;101469.50;4944862;28;102713;-90
2021/08/23 00:54:24;;;;;;;;;;;;;;;22.54;70.20;101477.00;4944130;28;101988;-89
2021/08/23 00:56:53;;;;;;;;;;;;;;;22.55;70.10;101478.63;4949573;28;101901;-90
2021/08/23 00:59:19;;;;;;;;;;;;;;;22.54;70.19;101474.22;4955512;28;102108;-86
2021/08/23 01:01:51;;;;;;;;;;;;;;;22.54;70.34;101468.69;4943430;28;102814;-86
2021/08/23 01:04:20;;;;;;;;;;;;;;;22.54;70.35;101465.91;4944505;28;102021;-86
2021/08/23 01:06:46;;;;;;;;;;;;;;;22.55;70.29;101475.84;4944282;28;102061;-86
2021/08/23 01:09:13;;;;;;;;;;;;;;;22.54;70.21;101474.22;4961701;28;102144;-86
2021/08/23 01:11:45;;;;;;;;;;;;;;;22.54;70.17;101477.00;4956915;28;102868;-89
2021/08/23 01:14:13;;;;;;;;;;;;;;;22.54;70.37;101477.00;4940571;28;102168;-86
2021/08/23 01:16:40;;;;;;;;;;;;;;;22.54;70.05;101482.53;4944211;28;102127;-86
2021/08/23 01:19:06;;;;;;;;;;;;;;;22.54;70.34;101477.00;4945383;28;102336;-86
2021/08/23 01:21:33;;;;;;;;;;;;;;;22.54;70.11;101468.69;4943591;28;104686;-86
2021/08/23 01:24:01;;;;;;;;;;;;;;;22.54;70.20;101471.44;4942345;28;102137;-86
2021/08/23 01:26:31;;;;;;;;;;;;;;;22.53;70.41;101470.63;4941447;28;102017;-86
2021/08/23 01:28:59;;;;;;;;;;;;;;;22.53;70.03;101472.56;4952368;28;102104;-85
2021/08/23 01:31:31;;;;;;;;;;;;;;;22.53;70.10;101464.25;4943079;28;102763;-86
2021/08/23 01:33:59;;;;;;;;;;;;;;;22.52;70.20;101460.66;4945435;28;102352;-86
2021/08/23 01:36:25;;;;;;;;;;;;;;;22.53;70.03;101469.81;4942957;28;101854;-86
2021/08/23 01:38:52;;;;;;;;;;;;;;;22.52;70.13;101466.22;4945530;28;102181;-86
2021/08/23 01:41:18;;;;;;;;;;;;;;;22.53;70.19;101467.03;4943603;28;102771;-86
2021/08/23 01:43:44;;;;;;;;;;;;;;;22.52;70.30;101466.22;4940098;28;102010;-86
2021/08/23 01:46:11;;;;;;;;;;;;;;;22.53;70.40;101470.63;4940365;28;101975;-86
2021/08/23 01:48:37;;;;;;;;;;;;;;;22.53;70.20;101464.25;4940471;28;102224;-89
2021/08/23 01:51:04;;;;;;;;;;;;;;;22.52;70.07;101462.63;4943667;28;102868;-85
2021/08/23 01:53:32;;;;;;;;;;;;;;;22.52;69.91;101465.41;4941412;28;102153;-86
2021/08/23 01:55:58;;;;;;;;;;;;;;;22.52;70.07;101468.19;4941712;28;102138;-85
2021/08/23 01:58:24;;;;;;;;;;;;;;;22.51;70.20;101466.56;4944417;28;102294;-86
2021/08/23 02:00:50;;;;;;;;;;;;;;;22.51;70.32;101472.91;4942255;28;102724;-86
2021/08/23 02:03:17;;;;;;;;;;;;;;;22.52;70.32;101468.19;4940966;28;101965;-85
2021/08/23 02:05:43;;;;;;;;;;;;;;;22.52;70.31;101469.00;4943959;28;102102;-85
2021/08/23 02:08:11;;;;;;;;;;;;;;;22.51;70.14;101467.38;4944711;28;102240;-85
2021/08/23 02:10:39;;;;;;;;;;;;;;;22.52;70.20;101462.63;4942939;28;102777;-86
2021/08/23 02:13:05;;;;;;;;;;;;;;;22.51;70.03;101467.38;4942960;28;101974;-86
2021/08/23 02:15:31;;;;;;;;;;;;;;;22.51;70.25;101467.38;4942886;28;102178;-86
2021/08/23 02:17:57;;;;;;;;;;;;;;;22.51;70.04;101461.03;4943513;28;102321;-86
2021/08/23 02:20:23;;;;;;;;;;;;;;;22.51;70.08;101467.38;4939906;28;102455;-86
2021/08/23 02:22:50;;;;;;;;;;;;;;;22.51;70.34;101466.56;4942317;28;102335;-85
2021/08/23 02:25:22;;;;;;;;;;;;;;;22.51;70.02;101469.34;4942527;28;102194;-86
2021/08/23 02:27:48;;;;;;;;;;;;;;;22.51;70.24;101470.16;4943107;28;102238;-85
2021/08/23 02:30:14;;;;;;;;;;;;;;;22.50;70.19;101467.69;4932342;28;102795;-85
2021/08/23 02:32:40;;;;;;;;;;;;;;;22.51;70.22;101477.66;4935887;28;102120;-85
2021/08/23 02:35:07;;;;;;;;;;;;;;;22.50;70.44;101473.25;4940741;28;102249;-86
2021/08/23 02:37:33;;;;;;;;;;;;;;;22.51;69.90;101472.13;4943055;28;102063;-86
2021/08/23 02:39:59;;;;;;;;;;;;;;;22.50;70.35;101481.56;4943481;28;104067;-86
2021/08/23 02:42:27;;;;;;;;;;;;;;;22.50;70.31;101482.41;4941127;28;102028;-85
2021/08/23 02:44:53;;;;;;;;;;;;;;;22.51;70.22;101491.53;4941261;28;102147;-85
2021/08/23 02:47:19;;;;;;;;;;;;;;;22.49;70.28;101486.31;4946804;28;102136;-86
2021/08/23 02:49:46;;;;;;;;;;;;;;;22.51;70.20;101494.31;4943423;28;103869;-85
2021/08/23 02:52:12;;;;;;;;;;;;;;;22.50;70.24;101492.66;4942103;28;102302;-85
2021/08/23 02:54:39;;;;;;;;;;;;;;;22.49;70.14;101493.81;4941379;28;102493;-85
2021/08/23 02:57:05;;;;;;;;;;;;;;;22.51;70.06;101499.84;4942663;28;102011;-85
2021/08/23 02:59:33;;;;;;;;;;;;;;;22.50;70.42;101492.66;4941354;28;102033;-85
2021/08/23 03:01:59;;;;;;;;;;;;;;;22.49;70.37;101491.03;4942792;28;102229;-85
2021/08/23 03:04:25;;;;;;;;;;;;;;;22.50;70.40;101495.44;4940725;28;102031;-86
2021/08/23 03:06:52;;;;;;;;;;;;;;;22.49;70.21;101491.03;4943760;28;102056;-85
2021/08/23 03:09:18;;;;;;;;;;;;;;;22.50;70.41;101500.97;4939148;28;102792;-90
2021/08/23 03:11:44;;;;;;;;;;;;;;;22.48;70.30;101501.31;4944379;28;101978;-86
2021/08/23 03:14:11;;;;;;;;;;;;;;;22.48;70.20;101506.88;4942352;28;102063;-86
2021/08/23 03:16:38;;;;;;;;;;;;;;;22.48;70.44;101501.31;4944960;28;102044;-86
2021/08/23 03:19:04;;;;;;;;;;;;;;;22.49;70.28;101507.69;4945119;28;102714;-86
2021/08/23 03:21:31;;;;;;;;;;;;;;;22.48;70.37;101501.31;4946645;28;102034;-86
2021/08/23 03:23:57;;;;;;;;;;;;;;;22.49;70.12;101507.69;4943052;28;102096;-86
2021/08/23 03:26:24;;;;;;;;;;;;;;;22.48;70.34;101506.88;4944843;28;102009;-86
2021/08/23 03:28:52;;;;;;;;;;;;;;;22.48;70.31;101508.84;4944115;28;103764;-86
2021/08/23 03:31:18;;;;;;;;;;;;;;;22.49;70.35;101507.69;4942451;28;102161;-86
2021/08/23 03:33:46;;;;;;;;;;;;;;;22.48;70.07;101500.50;4941759;28;102398;-85
2021/08/23 03:36:12;;;;;;;;;;;;;;;22.47;70.37;101502.47;4944030;28;102086;-85
2021/08/23 03:38:41;;;;;;;;;;;;;;;22.47;70.28;101504.44;4937217;28;103183;-86
2021/08/23 03:41:07;;;;;;;;;;;;;;;22.47;70.42;101507.22;4944939;28;101952;-85
2021/08/23 03:43:34;;;;;;;;;;;;;;;22.47;70.10;101516.34;4942676;28;101926;-85
2021/08/23 03:46:00;;;;;;;;;;;;;;;22.47;70.35;101510.81;4943454;28;102402;-86
2021/08/23 03:48:26;;;;;;;;;;;;;;;22.47;70.15;101516.34;4941360;28;102699;-86
2021/08/23 03:50:55;;;;;;;;;;;;;;;22.48;70.10;101519.94;4941855;28;102116;-86
2021/08/23 03:53:21;;;;;;;;;;;;;;;22.48;70.28;101511.59;4941777;28;102018;-86
2021/08/23 03:55:47;;;;;;;;;;;;;;;22.47;70.15;101515.53;4941888;28;102120;-85
2021/08/23 03:58:13;;;;;;;;;;;;;;;22.48;70.17;101508.84;4940884;28;102411;-86
2021/08/23 04:00:39;;;;;;;;;;;;;;;22.47;70.17;101521.91;4942377;28;102142;-86
2021/08/23 04:03:06;;;;;;;;;;;;;;;22.47;70.35;101513.56;4942474;28;102227;-86
2021/08/23 04:05:32;;;;;;;;;;;;;;;22.47;70.10;101518.31;4943284;28;102199;-85
2021/08/23 04:08:00;;;;;;;;;;;;;;;22.47;70.29;101516.34;4941398;28;102695;-86
2021/08/23 04:10:26;;;;;;;;;;;;;;;22.47;70.10;101515.53;4950561;28;102177;-86
2021/08/23 04:12:52;;;;;;;;;;;;;;;22.48;70.44;101514.38;4942394;28;101862;-85
2021/08/23 04:15:19;;;;;;;;;;;;;;;22.47;70.47;101521.09;4938309;28;102455;-86
2021/08/23 04:17:45;;;;;;;;;;;;;;;22.48;70.29;101522.69;4940578;28;102700;-86
2021/08/23 04:20:12;;;;;;;;;;;;;;;22.47;70.43;101521.09;4942899;28;102034;-86
2021/08/23 04:22:38;;;;;;;;;;;;;;;22.47;70.42;101518.31;4942524;28;102210;-86
2021/08/23 04:25:07;;;;;;;;;;;;;;;22.46;70.28;101523.03;4943302;28;102139;-86
2021/08/23 04:27:33;;;;;;;;;;;;;;;22.48;70.23;101533.78;4944868;28;102762;-86
2021/08/23 04:29:59;;;;;;;;;;;;;;;22.47;70.19;101524.66;4946560;28;102013;-90
2021/08/23 04:32:25;;;;;;;;;;;;;;;22.48;70.44;101525.47;4948659;28;102003;-90
2021/08/23 04:34:51;;;;;;;;;;;;;;;22.47;70.36;101529.41;4945388;28;101980;-90
2021/08/23 04:37:17;;;;;;;;;;;;;;;22.47;70.24;101527.44;4945109;28;102717;-86
2021/08/23 04:39:45;;;;;;;;;;;;;;;22.47;70.24;101518.31;4948156;28;101790;-89
2021/08/23 04:42:12;;;;;;;;;;;;;;;22.47;70.40;101521.09;4956350;28;101869;-86
2021/08/23 04:44:39;;;;;;;;;;;;;;;22.48;70.55;101514.38;4948687;28;102343;-90
2021/08/23 04:47:05;;;;;;;;;;;;;;;22.47;70.26;101515.53;4946598;28;102768;-90
2021/08/23 04:49:31;;;;;;;;;;;;;;;22.47;70.39;101521.09;4947106;28;101910;-91
2021/08/23 04:51:57;;;;;;;;;;;;;;;22.47;70.27;101515.53;4947301;28;102101;-89
2021/08/23 04:54:23;;;;;;;;;;;;;;;22.47;70.44;101512.75;4948671;28;102051;-89
2021/08/23 04:56:50;;;;;;;;;;;;;;;22.47;70.45;101521.91;4947160;28;102737;-89
2021/08/23 04:59:18;;;;;;;;;;;;;;;22.46;70.32;101513.88;4947368;28;101817;-90
2021/08/23 05:01:44;;;;;;;;;;;;;;;22.47;70.43;101515.53;4947377;28;101871;-89
2021/08/23 05:04:11;;;;;;;;;;;;;;;22.47;70.45;101521.91;4949012;28;102095;-89
2021/08/23 05:06:37;;;;;;;;;;;;;;;22.46;70.47;101516.66;4947597;28;102747;-89
2021/08/23 05:09:03;;;;;;;;;;;;;;;22.47;70.27;101521.09;4947880;28;101772;-89
2021/08/23 05:11:30;;;;;;;;;;;;;;;22.47;70.14;101512.75;4947122;28;101675;-90
2021/08/23 05:13:56;;;;;;;;;;;;;;;22.47;70.37;101510.00;4947818;28;102115;-89
2021/08/23 05:16:24;;;;;;;;;;;;;;;22.47;70.11;101515.53;4947127;28;102825;-89
2021/08/23 05:18:51;;;;;;;;;;;;;;;22.47;70.11;101504.44;4947727;28;101747;-89
2021/08/23 05:21:17;;;;;;;;;;;;;;;22.46;70.29;101511.13;4947069;28;101850;-89
2021/08/23 05:23:45;;;;;;;;;;;;;;;22.46;70.04;101502.78;4961810;28;102089;-90
2021/08/23 05:26:11;;;;;;;;;;;;;;;22.47;70.04;101498.91;4966249;28;102767;-89
2021/08/23 05:28:37;;;;;;;;;;;;;;;22.47;70.14;101498.91;4967079;28;101631;-89
2021/08/23 05:31:03;;;;;;;;;;;;;;;22.47;70.14;101496.13;4966943;28;101804;-89
2021/08/23 05:33:31;;;;;;;;;;;;;;;22.47;70.18;101499.72;4968459;28;102169;-89
2021/08/23 05:35:57;;;;;;;;;;;;;;;22.48;70.08;101494.97;4960621;28;102430;-89
2021/08/23 05:38:23;;;;;;;;;;;;;;;22.47;70.18;101498.91;4947426;28;101845;-89
2021/08/23 05:40:50;;;;;;;;;;;;;;;22.48;69.97;101497.75;4946864;28;101817;-90
2021/08/23 05:43:16;;;;;;;;;;;;;;;22.48;70.06;101500.50;4948384;28;102024;-89
2021/08/23 05:45:42;;;;;;;;;;;;;;;22.48;70.14;101497.75;4946860;28;102703;-89
2021/08/23 05:48:09;;;;;;;;;;;;;;;22.48;70.28;101501.31;4948112;28;101951;-89
2021/08/23 05:50:37;;;;;;;;;;;;;;;22.49;70.09;101502.13;4947077;28;101878;-89
2021/08/23 05:53:03;;;;;;;;;;;;;;;22.50;70.09;101503.75;4948242;28;102067;-90
2021/08/23 05:55:30;;;;;;;;;;;;;;;22.49;70.06;101496.59;4942414;28;102740;-90
2021/08/23 05:57:56;;;;;;;;;;;;;;;22.51;69.98;101491.53;4946477;28;101991;-89
2021/08/23 06:00:23;;;;;;;;;;;;;;;22.51;69.82;101497.06;4961844;28;101845;-86
2021/08/23 06:02:49;;;;;;;;;;;;;;;22.51;69.98;101494.31;4946749;28;102040;-86
2021/08/23 06:05:15;;;;;;;;;;;;;;;22.52;70.00;101487.59;4945735;28;102713;-86
2021/08/23 06:07:44;;;;;;;;;;;;;;;22.52;69.92;101496.72;4945907;28;102186;-86
2021/08/23 06:10:12;;;;;;;;;;;;;;;22.55;69.99;101503.59;4951749;28;101935;-86
2021/08/23 06:12:38;;;;;;;;;;;;;;;22.54;69.81;101494.44;4945118;28;102137;-86
2021/08/23 06:15:06;;;;;;;;;;;;;;;22.56;69.77;101494.09;4944797;28;102722;-87
2021/08/23 06:17:32;;;;;;;;;;;;;;;22.57;69.72;101492.94;4944179;28;101949;-86
2021/08/23 06:19:58;;;;;;;;;;;;;;;22.56;69.74;101496.88;4945754;28;102159;-86
2021/08/23 06:22:25;;;;;;;;;;;;;;;22.59;69.69;101498.19;4945673;28;101988;-86
2021/08/23 06:24:53;;;;;;;;;;;;;;;22.59;69.56;101489.84;4944365;28;102139;-87
2021/08/23 06:27:19;;;;;;;;;;;;;;;22.58;69.50;101497.38;4957989;28;102099;-86
2021/08/23 06:29:45;;;;;;;;;;;;;;;22.59;69.71;101495.41;4943643;28;102151;-86
2021/08/23 06:32:12;;;;;;;;;;;;;;;22.60;69.59;101495.06;4936249;28;102191;-87
2021/08/23 06:34:38;;;;;;;;;;;;;;;22.61;69.43;101493.94;4943183;28;103909;-86
2021/08/23 06:37:05;;;;;;;;;;;;;;;22.61;69.41;101487.53;4944072;28;102163;-87
2021/08/23 06:39:31;;;;;;;;;;;;;;;22.62;69.45;101486.41;4944061;28;102059;-87
2021/08/23 06:41:59;;;;;;;;;;;;;;;22.63;69.42;101499.94;4946222;28;102074;-87
2021/08/23 06:44:25;;;;;;;;;;;;;;;22.64;69.42;101492.44;4943054;28;102693;-86
2021/08/23 06:46:53;;;;;;;;;;;;;;;22.63;69.44;101491.63;4943528;28;102166;-89
2021/08/23 06:49:19;;;;;;;;;;;;;;;22.64;69.32;101487.69;4944105;28;101937;-90
2021/08/23 06:51:45;;;;;;;;;;;;;;;22.66;69.27;101495.69;4950100;28;101978;-89
2021/08/23 06:54:11;;;;;;;;;;;;;;;22.66;69.39;101490.97;4961059;28;103788;-88
2021/08/23 06:56:38;;;;;;;;;;;;;;;22.66;69.66;101490.97;4946224;28;101780;-89
2021/08/23 06:59:06;;;;;;;;;;;;;;;22.67;69.28;101492.56;4945370;28;101932;-89
2021/08/23 07:01:32;;;;;;;;;;;;;;;22.68;69.47;101494.19;4952861;28;101651;-89
2021/08/23 07:03:58;;;;;;;;;;;;;;;22.69;69.45;101487.50;4945403;28;104544;-90
2021/08/23 07:06:24;;;;;;;;;;;;;;;22.69;69.33;101495.03;4945771;28;101864;-90
2021/08/23 07:08:51;;;;;;;;;;;;;;;22.69;69.21;101498.63;4945601;28;101879;-90
2021/08/23 07:11:18;;;;;;;;;;;;;;;22.70;69.29;101489.13;4946089;28;102031;-89
2021/08/23 07:13:45;;;;;;;;;;;;;;;22.71;69.33;101493.53;4958361;28;101854;-90
2021/08/23 07:16:12;;;;;;;;;;;;;;;22.72;69.39;101488.78;4953685;28;101999;-90
2021/08/23 07:18:38;;;;;;;;;;;;;;;22.73;69.48;101491.25;4945302;28;101849;-89
2021/08/23 07:21:05;;;;;;;;;;;;;;;22.74;69.26;101486.50;4946593;28;102097;-90
2021/08/23 07:23:32;;;;;;;;;;;;;;;22.74;69.09;101487.31;4945078;28;102690;-90
2021/08/23 07:25:58;;;;;;;;;;;;;;;22.74;69.19;101481.75;4946028;28;101857;-89
2021/08/23 07:28:24;;;;;;;;;;;;;;;22.75;69.08;101488.94;4945492;28;101945;-91
2021/08/23 07:30:50;;;;;;;;;;;;;;;22.75;69.28;101491.72;4946083;28;102072;-89
2021/08/23 07:33:18;;;;;;;;;;;;;;;22.77;69.26;101486.66;4945615;28;102404;-89
2021/08/23 07:35:44;;;;;;;;;;;;;;;22.77;69.18;101491.38;4945636;28;101924;-89
2021/08/23 07:38:11;;;;;;;;;;;;;;;22.77;69.17;101492.19;4964623;28;101894;-90
2021/08/23 07:40:37;;;;;;;;;;;;;;;22.78;68.89;101482.72;4965760;28;102105;-89
2021/08/23 07:43:03;;;;;;;;;;;;;;;22.79;69.07;101495.47;4948375;28;102840;-89
2021/08/23 07:45:30;;;;;;;;;;;;;;;22.79;69.08;101489.91;4944531;28;102049;-89
2021/08/23 07:47:56;;;;;;;;;;;;;;;22.81;69.02;101485.97;4943432;28;102006;-89
2021/08/23 07:50:24;;;;;;;;;;;;;;;22.81;69.03;101484.00;4947295;28;102093;-89
2021/08/23 07:52:50;;;;;;;;;;;;;;;22.81;68.95;101480.44;4944280;28;102765;-90
2021/08/23 07:55:16;;;;;;;;;;;;;;;22.82;68.79;101482.84;4944543;28;101815;-89
2021/08/23 07:57:43;;;;;;;;;;;;;;;22.83;68.59;101489.22;4959465;28;102226;-88
2021/08/23 08:00:11;;;;;;;;;;;;;;;22.82;68.71;101476.50;4960246;28;102013;-89
2021/08/23 08:02:37;;;;;;;;;;;;;;;22.82;68.62;101471.75;4948829;28;102727;-89
2021/08/23 08:05:03;;;;;;;;;;;;;;;22.83;68.68;101470.63;4954375;28;101987;-90
2021/08/23 08:07:32;;;;;;;;;;;;;;;22.84;68.79;101471.44;4958180;28;101809;-90
2021/08/23 08:09:58;;;;;;;;;;;;;;;22.84;68.80;101463.13;4948831;28;102228;-89
2021/08/23 08:12:24;;;;;;;;;;;;;;;22.85;68.62;101473.06;4948127;28;102710;-89
2021/08/23 08:14:54;;;;;;;;;;;;;;;22.86;68.57;101471.91;4948185;28;101851;-89
2021/08/23 08:17:20;;;;;;;;;;;;;;;22.85;68.31;101464.72;4949929;28;101951;-90
2021/08/23 08:19:46;;;;;;;;;;;;;;;22.86;68.67;101460.78;4947615;28;102126;-89
2021/08/23 08:22:14;;;;;;;;;;;;;;;22.86;68.70;101456.06;4960552;28;102707;-89
2021/08/23 08:24:42;;;;;;;;;;;;;;;22.86;68.35;101461.59;4947355;28;102190;-86
2021/08/23 08:27:08;;;;;;;;;;;;;;;22.88;68.35;101458.50;4960231;28;102046;-90
2021/08/23 08:29:34;;;;;;;;;;;;;;;22.86;68.20;101456.06;4966755;28;102111;-86
2021/08/23 08:32:00;;;;;;;;;;;;;;;22.87;68.51;101456.91;4943093;28;102675;-87
2021/08/23 08:34:28;;;;;;;;;;;;;;;22.88;68.34;101455.72;4945905;28;102063;-90
2021/08/23 08:36:54;;;;;;;;;;;;;;;22.89;68.11;101460.13;4947358;28;102004;-90
2021/08/23 08:39:21;;;;;;;;;;;;;;;22.88;68.29;101455.72;4947861;28;102127;-89
2021/08/23 08:41:48;;;;;;;;;;;;;;;22.89;68.32;101460.13;4947941;28;102698;-90
2021/08/23 08:44:14;;;;;;;;;;;;;;;22.89;68.46;101451.81;4947435;28;101987;-87
2021/08/23 08:46:42;;;;;;;;;;;;;;;22.89;68.34;101454.56;4947114;28;102024;-90
2021/08/23 08:49:11;;;;;;;;;;;;;;;22.89;68.12;101462.91;4964892;28;102071;-89
2021/08/23 08:51:37;;;;;;;;;;;;;;;22.90;68.33;101456.19;4949610;28;102802;-90
2021/08/23 08:54:04;;;;;;;;;;;;;;;22.91;68.18;101457.84;4947469;28;101843;-90
2021/08/23 08:56:30;;;;;;;;;;;;;;;22.89;67.98;101454.56;4947295;28;101886;-90
2021/08/23 08:58:58;;;;;;;;;;;;;;;22.89;68.15;101457.34;4954908;28;102169;-90
2021/08/23 09:01:25;;;;;;;;;;;;;;;22.91;68.08;101452.28;4958063;28;102513;-90
2021/08/23 09:03:52;;;;;;;;;;;;;;;22.90;67.96;101450.63;4948194;28;101938;-90
2021/08/23 09:06:19;;;;;;;;;;;;;;;22.89;68.22;101449.03;4947269;28;101862;-90
2021/08/23 09:08:48;;;;;;;;;;;;;;;22.92;68.27;101453.94;4948038;28;102084;-90
2021/08/23 09:11:16;;;;;;;;;;;;;;;22.91;68.08;101452.28;4945825;28;102707;-90
2021/08/23 09:13:56;;;;;;;;;;;;;;;22.89;68.03;101444.28;4950484;28;102002;-89
2021/08/23 09:16:26;;;;;;;;;;;;;;;22.91;68.18;101446.75;4944089;28;101909;-90
2021/08/23 09:18:52;;;;;;;;;;;;;;;22.91;67.81;101449.50;4948230;28;102072;-91
2021/08/23 09:21:26;;;;;;;;;;;;;;;22.92;67.94;101451.16;4946494;28;102715;-90
2021/08/23 09:23:53;;;;;;;;;;;;;;;22.91;67.82;101441.19;4930250;28;101885;-90
2021/08/23 09:26:20;;;;;;;;;;;;;;;22.92;68.09;101442.84;4947192;28;101904;-90
2021/08/23 09:28:54;;;;;;;;;;;;;;;22.90;67.96;101443.16;4948610;28;102040;-90
2021/08/23 09:31:23;;;;;;;;;;;;;;;22.91;68.00;101436.44;4943374;28;102734;-90
2021/08/23 09:33:51;;;;;;;;;;;;;;;22.92;68.18;101431.72;4947751;28;101696;-90
2021/08/23 09:36:18;;;;;;;;;;;;;;;22.93;67.98;101433.34;4956952;28;101968;-90
2021/08/23 09:38:55;;;;;;;;;;;;;;;22.92;67.88;101418.66;4956285;28;102036;-89
2021/08/23 09:41:23;;;;;;;;;;;;;;;22.92;68.00;101427.00;4938105;28;102237;-89
2021/08/23 09:43:57;;;;;;;;;;;;;;;22.92;67.93;101427.00;4945210;28;101622;-89
2021/08/23 09:46:23;;;;;;;;;;;;;;;22.93;67.90;101436.13;4944315;28;101990;-89
2021/08/23 09:48:55;;;;;;;;;;;;;;;22.92;67.92;101431.72;4947366;28;102091;-89
2021/08/23 09:51:25;;;;;;;;;;;;;;;22.93;67.72;101422.25;4943459;28;103188;-87
2021/08/23 09:53:53;;;;;;;;;;;;;;;22.92;67.79;101437.28;4943361;28;102236;-86
2021/08/23 09:56:20;;;;;;;;;;;;;;;22.91;67.69;101425.34;4944086;28;102170;-87
2021/08/23 09:58:46;;;;;;;;;;;;;;;22.91;67.80;101424.53;4943572;28;102069;-87
2021/08/23 10:01:13;;;;;;;;;;;;;;;22.90;67.45;101422.88;4943140;28;102480;-87
2021/08/23 10:03:39;;;;;;;;;;;;;;;22.90;67.59;101417.34;4962667;28;102205;-86
2021/08/23 10:06:07;;;;;;;;;;;;;;;22.90;67.56;101426.50;4943546;28;102308;-86
2021/08/23 10:08:33;;;;;;;;;;;;;;;22.92;67.82;101428.97;4937019;28;102152;-86
2021/08/23 10:11:00;;;;;;;;;;;;;;;22.92;67.63;101421.44;4945274;28;102750;-90
2021/08/23 10:13:26;;;;;;;;;;;;;;;22.92;67.75;101423.41;4960742;28;101909;-90
2021/08/23 10:15:53;;;;;;;;;;;;;;;22.91;67.70;101422.56;4965909;28;101836;-91
2021/08/23 10:18:19;;;;;;;;;;;;;;;22.92;67.78;101428.97;4959862;28;102056;-89
2021/08/23 10:20:46;;;;;;;;;;;;;;;22.91;67.75;101424.53;4962569;28;102832;-90
2021/08/23 10:23:16;;;;;;;;;;;;;;;22.91;67.95;101418.97;4964855;28;101882;-90
2021/08/23 10:25:43;;;;;;;;;;;;;;;22.91;67.79;101424.53;4960162;28;101655;-90
2021/08/23 10:28:10;;;;;;;;;;;;;;;22.91;67.59;101421.75;4948118;28;102067;-90
2021/08/23 10:30:39;;;;;;;;;;;;;;;22.90;67.58;101415.41;4961144;28;102643;-90
2021/08/23 10:33:08;;;;;;;;;;;;;;;22.91;67.86;101413.44;4946938;28;101914;-90
2021/08/23 10:35:44;;;;;;;;;;;;;;;22.90;67.75;101412.63;4970624;28;101795;-89
2021/08/23 10:38:14;;;;;;;;;;;;;;;22.91;67.66;101413.44;4960498;28;102251;-92
2021/08/23 10:40:42;;;;;;;;;;;;;;;22.90;67.83;101407.06;4943664;28;102687;-92
2021/08/23 10:43:11;;;;;;;;;;;;;;;22.90;67.47;101404.28;4944787;28;102115;-91
2021/08/23 10:45:37;;;;;;;;;;;;;;;22.89;67.82;101412.94;4946035;28;102172;-91
2021/08/23 10:48:11;;;;;;;;;;;;;;;22.89;67.61;101399.88;4960387;28;102227;-92
2021/08/23 10:50:37;;;;;;;;;;;;;;;22.89;67.68;101393.53;4961658;28;102678;-92
2021/08/23 10:53:10;;;;;;;;;;;;;;;22.88;67.54;101405.78;4944937;28;102101;-90
2021/08/23 10:55:37;;;;;;;;;;;;;;;22.88;67.81;101391.91;4944621;28;102088;-90
2021/08/23 10:58:05;;;;;;;;;;;;;;;22.89;67.93;101396.28;4947140;28;102053;-92
2021/08/23 11:00:36;;;;;;;;;;;;;;;22.88;67.65;101403.00;4958695;28;104659;-91
2021/08/23 11:03:03;;;;;;;;;;;;;;;22.88;67.65;101398.25;4941535;28;102018;-91
2021/08/23 11:05:29;;;;;;;;;;;;;;;22.88;67.75;101403.00;4942654;28;101931;-91
2021/08/23 11:07:58;;;;;;;;;;;;;;;22.88;67.86;101400.22;4945230;28;102186;-90
2021/08/23 11:10:26;;;;;;;;;;;;;;;22.87;67.85;101396.66;4944975;28;102746;-91
2021/08/23 11:12:54;;;;;;;;;;;;;;;22.87;67.80;101387.50;4942701;28;102029;-90
2021/08/23 11:15:27;;;;;;;;;;;;;;;22.87;67.77;101390.28;4945113;28;102085;-89
2021/08/23 11:17:55;;;;;;;;;;;;;;;22.87;67.81;101384.72;4943374;28;101999;-90
2021/08/23 11:20:22;;;;;;;;;;;;;;;22.86;67.88;101383.09;4943993;28;102695;-90
2021/08/23 11:22:52;;;;;;;;;;;;;;;22.87;67.96;101376.41;4958315;28;102015;-90
2021/08/23 11:25:24;;;;;;;;;;;;;;;22.86;67.70;101383.09;4958120;28;102101;-91
2021/08/23 11:27:51;;;;;;;;;;;;;;;22.86;67.72;101383.91;4957517;28;102161;-91
2021/08/23 11:30:25;;;;;;;;;;;;;;;22.86;67.90;101383.09;4943230;28;102480;-91
2021/08/23 11:32:53;;;;;;;;;;;;;;;22.85;67.94;101373.94;4942883;28;102031;-89
2021/08/23 11:35:19;;;;;;;;;;;;;;;22.86;68.11;101371.97;4944957;28;102013;-90
2021/08/23 11:37:53;;;;;;;;;;;;;;;22.86;68.10;101371.97;4945395;28;101987;-91
2021/08/23 11:40:19;;;;;;;;;;;;;;;22.84;67.88;101368.75;4940921;28;102633;-90
2021/08/23 11:42:45;;;;;;;;;;;;;;;22.86;68.19;101358.09;4947633;28;102142;-90
2021/08/23 11:45:18;;;;;;;;;;;;;;;22.85;67.99;101354.53;4939279;28;102009;-90
2021/08/23 11:47:48;;;;;;;;;;;;;;;22.84;68.04;101357.66;4942062;28;102186;-90
2021/08/23 11:50:16;;;;;;;;;;;;;;;22.84;67.95;101363.22;4943827;28;102619;-91
2021/08/23 11:52:43;;;;;;;;;;;;;;;22.84;67.71;101365.97;4945241;28;102157;-90
2021/08/23 11:55:09;;;;;;;;;;;;;;;22.84;67.97;101364.00;4944222;28;102080;-90
2021/08/23 11:57:36;;;;;;;;;;;;;;;22.83;67.99;101362.41;4944184;28;102084;-90
2021/08/23 12:00:04;;;;;;;;;;;;;;;22.83;68.01;101365.16;4939906;28;102427;-90
2021/08/23 12:02:31;;;;;;;;;;;;;;;22.83;68.00;101350.47;4941689;28;102190;-90
2021/08/23 12:05:10;;;;;;;;;;;;;;;22.83;68.16;101362.41;4944299;28;101902;-90
2021/08/23 12:07:50;;;;;;;;;;;;;;;22.82;68.05;101354.41;4953713;28;102088;-91
2021/08/23 12:10:24;;;;;;;;;;;;;;;22.81;67.87;101350.00;4944542;28;102612;-90
2021/08/23 12:12:50;;;;;;;;;;;;;;;22.82;68.06;101348.84;4947615;28;102002;-91
2021/08/23 12:15:17;;;;;;;;;;;;;;;22.80;68.35;101346.41;4943459;28;102184;-91
2021/08/23 12:17:43;;;;;;;;;;;;;;;22.81;68.10;101350.00;4944849;28;102099;-90
2021/08/23 12:20:10;;;;;;;;;;;;;;;22.80;68.13;101351.97;4939729;28;102515;-90
2021/08/23 12:22:36;;;;;;;;;;;;;;;22.81;68.10;101352.78;4934773;28;102160;-90
2021/08/23 12:25:04;;;;;;;;;;;;;;;22.81;68.16;101352.78;4942984;28;102054;-90
2021/08/23 12:27:30;;;;;;;;;;;;;;;22.81;68.35;101341.69;4944760;28;102100;-91